sensor_id;sensor_type;location;lat;lon;timestamp;temperature;humidity
3794;DHT22;1912;51.358;12.282;2023-11-18T04:46:35;3.60;1.00
3794;DHT22;1912;51.358;12.282;2023-11-18T04:49:02;3.60;1.00
3794;DHT22;1912;51.358;12.282;2023-11-18T04:51:28;3.60;1.00
3794;DHT22;1912;51.358;12.282;2023-11-18T04:53:54;3.70;1.00
3794;DHT22;1912;51.358;12.282;2023-11-18T04:56:19;3.70;1.00
3794;DHT22;1912;51.358;12.282;2023-11-18T04:58:47;3.70;1.00
3794;DHT22;1912;51.358;12.282;2023-11-18T05:01:14;3.80;1.00
3794;DHT22;1912;51.358;12.282;2023-11-18T05:03:39;3.80;1.00
3794;DHT22;1912;51.358;12.282;2023-11-18T05:06:05;3.80;1.00
3794;DHT22;1912;51.358;12.282;2023-11-18T05:08:32;3.80;1.00
3794;DHT22;1912;51.358;12.282;2023-11-18T05:10:58;3.80;1.00
3794;DHT22;1912;51.358;12.282;2023-11-18T05:13:24;3.80;1.00
3794;DHT22;1912;51.358;12.282;2023-11-18T05:15:52;3.70;1.00
3794;DHT22;1912;51.358;12.282;2023-11-18T05:18:19;3.70;1.00
3794;DHT22;1912;51.358;12.282;2023-11-18T05:20:45;3.70;1.00
3794;DHT22;1912;51.358;12.282;2023-11-18T05:23:11;3.60;1.00
3794;DHT22;1912;51.358;12.282;2023-11-18T05:25:40;3.60;1.00
3794;DHT22;1912;51.358;12.282;2023-11-18T05:28:08;3.70;1.00
3794;DHT22;1912;51.358;12.282;2023-11-18T05:30:40;3.70;1.00
3794;DHT22;1912;51.358;12.282;2023-11-18T05:33:08;3.80;1.00
3794;DHT22;1912;51.358;12.282;2023-11-18T05:35:35;3.80;1.00
3794;DHT22;1912;51.358;12.282;2023-11-18T05:38:01;3.80;1.00
3794;DHT22;1912;51.358;12.282;2023-11-18T05:40:31;3.80;1.00
3794;DHT22;1912;51.358;12.282;2023-11-18T05:42:57;3.80;1.00
3794;DHT22;1912;51.358;12.282;2023-11-18T05:45:24;3.90;1.00
3794;DHT22;1912;51.358;12.282;2023-11-18T05:48:09;3.90;1.00
3794;DHT22;1912;51.358;12.282;2023-11-18T05:50:35;3.90;1.00
3794;DHT22;1912;51.358;12.282;2023-11-18T05:53:00;4.00;1.00
3794;DHT22;1912;51.358;12.282;2023-11-18T05:55:26;4.00;1.00
3794;DHT22;1912;51.358;12.282;2023-11-18T05:57:52;4.00;1.00
3794;DHT22;1912;51.358;12.282;2023-11-18T06:00:17;4.00;1.00
3794;DHT22;1912;51.358;12.282;2023-11-18T06:02:44;4.00;1.00
3794;DHT22;1912;51.358;12.282;2023-11-18T06:05:10;4.00;1.00
3794;DHT22;1912;51.358;12.282;2023-11-18T06:07:38;4.10;1.00
3794;DHT22;1912;51.358;12.282;2023-11-18T06:10:08;4.10;1.00
3794;DHT22;1912;51.358;12.282;2023-11-18T06:12:34;4.00;1.00
3794;DHT22;1912;51.358;12.282;2023-11-18T06:15:02;4.10;1.00
3794;DHT22;1912;51.358;12.282;2023-11-18T06:17:28;4.10;1.00
3794;DHT22;1912;51.358;12.282;2023-11-18T06:19:54;4.10;1.00
3794;DHT22;1912;51.358;12.282;2023-11-18T06:22:19;4.10;1.00
3794;DHT22;1912;51.358;12.282;2023-11-18T06:24:45;4.10;1.00
3794;DHT22;1912;51.358;12.282;2023-11-18T06:27:11;4.10;1.00
3794;DHT22;1912;51.358;12.282;2023-11-18T06:29:37;4.10;1.00
3794;DHT22;1912;51.358;12.282;2023-11-18T06:32:03;4.20;1.00
3794;DHT22;1912;51.358;12.282;2023-11-18T06:34:31;4.20;1.00
3794;DHT22;1912;51.358;12.282;2023-11-18T06:36:58;4.20;1.00
3794;DHT22;1912;51.358;12.282;2023-11-18T06:39:23;4.20;1.00
3794;DHT22;1912;51.358;12.282;2023-11-18T06:41:55;4.20;1.00
3794;DHT22;1912;51.358;12.282;2023-11-18T06:44:23;4.30;1.00
3794;DHT22;1912;51.358;12.282;2023-11-18T06:46:49;4.30;1.00
3794;DHT22;1912;51.358;12.282;2023-11-18T06:49:16;4.20;1.00
3794;DHT22;1912;51.358;12.282;2023-11-18T06:51:43;4.30;1.00
3794;DHT22;1912;51.358;12.282;2023-11-18T06:54:09;4.30;1.00
3794;DHT22;1912;51.358;12.282;2023-11-18T06:56:42;4.30;1.00
3794;DHT22;1912;51.358;12.282;2023-11-18T06:59:08;4.20;1.00
3794;DHT22;1912;51.358;12.282;2023-11-18T07:01:38;4.20;1.00
3794;DHT22;1912;51.358;12.282;2023-11-18T07:04:06;4.20;1.00
3794;DHT22;1912;51.358;12.282;2023-11-18T07:06:34;4.20;1.00
3794;DHT22;1912;51.358;12.282;2023-11-18T07:09:04;4.10;1.00
3794;DHT22;1912;51.358;12.282;2023-11-18T07:11:46;4.20;1.00
3794;DHT22;1912;51.358;12.282;2023-11-18T07:14:13;4.20;1.00
3794;DHT22;1912;51.358;12.282;2023-11-18T07:16:40;4.20;1.00
3794;DHT22;1912;51.358;12.282;2023-11-18T07:19:07;4.20;1.00
3794;DHT22;1912;51.358;12.282;2023-11-18T07:21:36;4.20;1.00
3794;DHT22;1912;51.358;12.282;2023-11-18T07:24:02;4.30;1.00
3794;DHT22;1912;51.358;12.282;2023-11-18T07:26:28;4.20;1.00
3794;DHT22;1912;51.358;12.282;2023-11-18T07:28:54;4.30;1.00
3794;DHT22;1912;51.358;12.282;2023-11-18T07:31:19;4.30;1.00
3794;DHT22;1912;51.358;12.282;2023-11-18T07:33:45;4.30;1.00
3794;DHT22;1912;51.358;12.282;2023-11-18T07:36:17;4.30;1.00
3794;DHT22;1912;51.358;12.282;2023-11-18T07:38:45;4.30;1.00
3794;DHT22;1912;51.358;12.282;2023-11-18T07:41:12;4.30;1.00
3794;DHT22;1912;51.358;12.282;2023-11-18T07:43:50;4.30;1.00
3794;DHT22;1912;51.358;12.282;2023-11-18T07:46:16;4.40;1.00
3794;DHT22;1912;51.358;12.282;2023-11-18T07:48:42;4.40;1.00
3794;DHT22;1912;51.358;12.282;2023-11-18T07:51:08;4.40;1.00
3794;DHT22;1912;51.358;12.282;2023-11-18T07:53:33;4.40;1.00
3794;DHT22;1912;51.358;12.282;2023-11-18T07:55:59;4.50;1.00
3794;DHT22;1912;51.358;12.282;2023-11-18T07:58:26;4.50;1.00
3794;DHT22;1912;51.358;12.282;2023-11-18T08:00:53;4.50;1.00
3794;DHT22;1912;51.358;12.282;2023-11-18T08:03:20;4.50;1.00
3794;DHT22;1912;51.358;12.282;2023-11-18T08:05:47;4.50;1.00
3794;DHT22;1912;51.358;12.282;2023-11-18T08:08:14;4.70;1.00
3794;DHT22;1912;51.358;12.282;2023-11-18T08:10:43;4.70;1.00
3794;DHT22;1912;51.358;12.282;2023-11-18T08:13:10;4.80;1.00
3794;DHT22;1912;51.358;12.282;2023-11-18T08:15:41;4.90;1.00
3794;DHT22;1912;51.358;12.282;2023-11-18T08:18:08;5.00;1.00
3794;DHT22;1912;51.358;12.282;2023-11-18T08:20:36;5.10;1.00
3794;DHT22;1912;51.358;12.282;2023-11-18T08:23:02;5.20;1.00
3794;DHT22;1912;51.358;12.282;2023-11-18T08:25:30;5.30;1.00
3794;DHT22;1912;51.358;12.282;2023-11-18T08:27:59;5.30;1.00
3794;DHT22;1912;51.358;12.282;2023-11-18T08:30:26;5.40;1.00
3794;DHT22;1912;51.358;12.282;2023-11-18T08:32:51;5.40;1.00
3794;DHT22;1912;51.358;12.282;2023-11-18T08:35:17;5.50;1.00
3794;DHT22;1912;51.358;12.282;2023-11-18T08:37:43;5.60;1.00
3794;DHT22;1912;51.358;12.282;2023-11-18T08:40:11;5.60;1.00
3794;DHT22;1912;51.358;12.282;2023-11-18T08:42:52;5.70;1.00
3794;DHT22;1912;51.358;12.282;2023-11-18T08:47:54;5.90;1.00
3794;DHT22;1912;51.358;12.282;2023-11-18T08:50:21;6.00;1.00
3794;DHT22;1912;51.358;12.282;2023-11-18T08:52:50;6.20;1.00
3794;DHT22;1912;51.358;12.282;2023-11-18T08:55:21;6.10;1.00
3794;DHT22;1912;51.358;12.282;2023-11-18T08:57:47;6.00;1.00
3794;DHT22;1912;51.358;12.282;2023-11-18T09:00:16;6.10;1.00
3794;DHT22;1912;51.358;12.282;2023-11-18T09:03:02;6.00;1.00
3794;DHT22;1912;51.358;12.282;2023-11-18T09:05:32;5.90;1.00
3794;DHT22;1912;51.358;12.282;2023-11-18T09:07:58;6.00;1.00
3794;DHT22;1912;51.358;12.282;2023-11-18T09:10:27;5.90;1.00
3794;DHT22;1912;51.358;12.282;2023-11-18T09:12:54;6.00;1.00
3794;DHT22;1912;51.358;12.282;2023-11-18T09:15:20;6.20;1.00
3794;DHT22;1912;51.358;12.282;2023-11-18T09:17:49;6.40;1.00
3794;DHT22;1912;51.358;12.282;2023-11-18T09:20:15;6.60;1.00
3794;DHT22;1912;51.358;12.282;2023-11-18T09:22:48;6.80;1.00
3794;DHT22;1912;51.358;12.282;2023-11-18T09:25:15;6.80;1.00
3794;DHT22;1912;51.358;12.282;2023-11-18T09:27:42;6.90;1.00
3794;DHT22;1912;51.358;12.282;2023-11-18T09:30:08;6.70;1.00
3794;DHT22;1912;51.358;12.282;2023-11-18T09:32:43;6.40;1.00
3794;DHT22;1912;51.358;12.282;2023-11-18T09:35:13;6.30;1.00
3794;DHT22;1912;51.358;12.282;2023-11-18T09:37:39;6.10;1.00
3794;DHT22;1912;51.358;12.282;2023-11-18T09:40:16;6.00;1.00
3794;DHT22;1912;51.358;12.282;2023-11-18T09:42:43;6.10;1.00
3794;DHT22;1912;51.358;12.282;2023-11-18T09:45:10;6.10;1.00
3794;DHT22;1912;51.358;12.282;2023-11-18T09:47:46;6.20;1.00
3794;DHT22;1912;51.358;12.282;2023-11-18T09:50:22;6.20;1.00
3794;DHT22;1912;51.358;12.282;2023-11-18T09:52:54;6.20;1.00
3794;DHT22;1912;51.358;12.282;2023-11-18T09:55:49;6.20;1.00
3794;DHT22;1912;51.358;12.282;2023-11-18T09:58:21;6.30;1.00
3794;DHT22;1912;51.358;12.282;2023-11-18T10:00:50;6.50;1.00
3794;DHT22;1912;51.358;12.282;2023-11-18T10:03:23;6.40;1.00
3794;DHT22;1912;51.358;12.282;2023-11-18T10:05:50;6.50;1.00
3794;DHT22;1912;51.358;12.282;2023-11-18T10:08:20;6.50;1.00
3794;DHT22;1912;51.358;12.282;2023-11-18T10:10:51;6.60;1.00
3794;DHT22;1912;51.358;12.282;2023-11-18T10:13:25;6.80;1.00
3794;DHT22;1912;51.358;12.282;2023-11-18T10:15:51;6.80;1.00
3794;DHT22;1912;51.358;12.282;2023-11-18T10:18:18;6.70;1.00
3794;DHT22;1912;51.358;12.282;2023-11-18T10:20:51;6.90;1.00
3794;DHT22;1912;51.358;12.282;2023-11-18T10:23:18;7.00;1.00
3794;DHT22;1912;51.358;12.282;2023-11-18T10:25:52;7.00;1.00
3794;DHT22;1912;51.358;12.282;2023-11-18T10:28:35;7.10;1.00
3794;DHT22;1912;51.358;12.282;2023-11-18T10:31:07;7.10;1.00
3794;DHT22;1912;51.358;12.282;2023-11-18T10:33:35;7.10;1.00
3794;DHT22;1912;51.358;12.282;2023-11-18T10:36:03;7.00;1.00
3794;DHT22;1912;51.358;12.282;2023-11-18T10:38:38;7.00;1.00
3794;DHT22;1912;51.358;12.282;2023-11-18T10:41:09;7.10;1.00
3794;DHT22;1912;51.358;12.282;2023-11-18T10:43:35;7.20;1.00
3794;DHT22;1912;51.358;12.282;2023-11-18T10:46:08;7.30;1.00
3794;DHT22;1912;51.358;12.282;2023-11-18T10:48:43;7.20;1.00
3794;DHT22;1912;51.358;12.282;2023-11-18T10:51:14;7.20;1.00
3794;DHT22;1912;51.358;12.282;2023-11-18T10:53:52;7.20;1.00
3794;DHT22;1912;51.358;12.282;2023-11-18T10:56:22;7.10;1.00
3794;DHT22;1912;51.358;12.282;2023-11-18T10:59:12;7.10;1.00
3794;DHT22;1912;51.358;12.282;2023-11-18T11:01:42;7.00;1.00
3794;DHT22;1912;51.358;12.282;2023-11-18T11:04:09;7.00;1.00
3794;DHT22;1912;51.358;12.282;2023-11-18T11:06:44;7.10;1.00
3794;DHT22;1912;51.358;12.282;2023-11-18T11:09:21;7.00;1.00
3794;DHT22;1912;51.358;12.282;2023-11-18T11:11:57;6.80;1.00
3794;DHT22;1912;51.358;12.282;2023-11-18T11:14:34;6.80;1.00
3794;DHT22;1912;51.358;12.282;2023-11-18T11:17:08;6.80;1.00
3794;DHT22;1912;51.358;12.282;2023-11-18T11:19:49;6.80;1.00
3794;DHT22;1912;51.358;12.282;2023-11-18T11:22:24;6.80;1.00
3794;DHT22;1912;51.358;12.282;2023-11-18T11:30:51;7.10;1.00
3794;DHT22;1912;51.358;12.282;2023-11-18T11:33:39;7.10;1.00
3794;DHT22;1912;51.358;12.282;2023-11-18T11:36:15;7.10;1.00
3794;DHT22;1912;51.358;12.282;2023-11-18T11:38:50;7.20;1.00
3794;DHT22;1912;51.358;12.282;2023-11-18T11:41:18;7.30;1.00
3794;DHT22;1912;51.358;12.282;2023-11-18T11:43:52;7.30;1.00
3794;DHT22;1912;51.358;12.282;2023-11-18T11:46:25;7.50;1.00
3794;DHT22;1912;51.358;12.282;2023-11-18T11:48:59;7.50;1.00
3794;DHT22;1912;51.358;12.282;2023-11-18T11:51:45;7.60;1.00
3794;DHT22;1912;51.358;12.282;2023-11-18T11:54:27;7.50;1.00
3794;DHT22;1912;51.358;12.282;2023-11-18T11:56:56;7.60;1.00
3794;DHT22;1912;51.358;12.282;2023-11-18T12:02:11;7.70;1.00
3794;DHT22;1912;51.358;12.282;2023-11-18T12:04:43;7.70;1.00
3794;DHT22;1912;51.358;12.282;2023-11-18T12:07:10;7.70;1.00
3794;DHT22;1912;51.358;12.282;2023-11-18T12:09:36;7.60;1.00
3794;DHT22;1912;51.358;12.282;2023-11-18T12:12:17;7.70;1.00
3794;DHT22;1912;51.358;12.282;2023-11-18T12:14:57;7.70;1.00
3794;DHT22;1912;51.358;12.282;2023-11-18T12:20:38;7.90;1.00
3794;DHT22;1912;51.358;12.282;2023-11-18T12:23:14;7.90;1.00
3794;DHT22;1912;51.358;12.282;2023-11-18T12:25:44;7.70;1.00
3794;DHT22;1912;51.358;12.282;2023-11-18T12:28:27;7.70;1.00
3794;DHT22;1912;51.358;12.282;2023-11-18T12:30:56;7.60;1.00
3794;DHT22;1912;51.358;12.282;2023-11-18T12:37:17;7.60;1.00
3794;DHT22;1912;51.358;12.282;2023-11-18T12:43:16;7.80;1.00
3794;DHT22;1912;51.358;12.282;2023-11-18T12:46:20;7.90;1.00
3794;DHT22;1912;51.358;12.282;2023-11-18T12:49:02;8.10;1.00
3794;DHT22;1912;51.358;12.282;2023-11-18T12:51:29;8.20;1.00
3794;DHT22;1912;51.358;12.282;2023-11-18T12:53:56;8.20;1.00
3794;DHT22;1912;51.358;12.282;2023-11-18T12:56:25;8.20;1.00
3794;DHT22;1912;51.358;12.282;2023-11-18T12:58:51;8.20;1.00
3794;DHT22;1912;51.358;12.282;2023-11-18T13:01:17;8.10;1.00
3794;DHT22;1912;51.358;12.282;2023-11-18T13:03:44;8.10;1.00
3794;DHT22;1912;51.358;12.282;2023-11-18T13:06:11;8.20;1.00
3794;DHT22;1912;51.358;12.282;2023-11-18T13:08:40;8.20;1.00
3794;DHT22;1912;51.358;12.282;2023-11-18T13:11:06;8.10;1.00
3794;DHT22;1912;51.358;12.282;2023-11-18T13:13:40;8.00;1.00
3794;DHT22;1912;51.358;12.282;2023-11-18T13:16:07;8.00;1.00
3794;DHT22;1912;51.358;12.282;2023-11-18T13:18:46;8.00;1.00
3794;DHT22;1912;51.358;12.282;2023-11-18T13:21:19;8.00;1.00
3794;DHT22;1912;51.358;12.282;2023-11-18T13:23:51;7.90;1.00
3794;DHT22;1912;51.358;12.282;2023-11-18T13:26:19;7.80;1.00
3794;DHT22;1912;51.358;12.282;2023-11-18T13:28:48;7.80;1.00
3794;DHT22;1912;51.358;12.282;2023-11-18T13:31:15;7.80;1.00
3794;DHT22;1912;51.358;12.282;2023-11-18T13:33:47;7.70;1.00
3794;DHT22;1912;51.358;12.282;2023-11-18T13:36:14;7.70;1.00
3794;DHT22;1912;51.358;12.282;2023-11-18T13:38:41;7.70;1.00
3794;DHT22;1912;51.358;12.282;2023-11-18T13:41:07;7.70;1.00
3794;DHT22;1912;51.358;12.282;2023-11-18T13:43:46;7.70;1.00
3794;DHT22;1912;51.358;12.282;2023-11-18T13:46:17;7.70;1.00
3794;DHT22;1912;51.358;12.282;2023-11-18T13:48:47;7.70;1.00
3794;DHT22;1912;51.358;12.282;2023-11-18T13:51:15;7.70;1.00
3794;DHT22;1912;51.358;12.282;2023-11-18T13:53:42;7.60;1.00
3794;DHT22;1912;51.358;12.282;2023-11-18T13:56:12;7.60;1.00
3794;DHT22;1912;51.358;12.282;2023-11-18T13:58:39;7.50;1.00
3794;DHT22;1912;51.358;12.282;2023-11-18T14:01:08;7.40;1.00
3794;DHT22;1912;51.358;12.282;2023-11-18T14:03:36;7.40;1.00
3794;DHT22;1912;51.358;12.282;2023-11-18T14:06:08;7.40;1.00
3794;DHT22;1912;51.358;12.282;2023-11-18T14:08:38;7.40;1.00
3794;DHT22;1912;51.358;12.282;2023-11-18T14:11:05;7.40;1.00
3794;DHT22;1912;51.358;12.282;2023-11-18T14:13:35;7.40;1.00
3794;DHT22;1912;51.358;12.282;2023-11-18T14:16:02;7.40;1.00
3794;DHT22;1912;51.358;12.282;2023-11-18T14:18:29;7.40;1.00
3794;DHT22;1912;51.358;12.282;2023-11-18T14:20:55;7.30;1.00
3794;DHT22;1912;51.358;12.282;2023-11-18T14:23:21;7.30;1.00
3794;DHT22;1912;51.358;12.282;2023-11-18T14:25:48;7.30;1.00
3794;DHT22;1912;51.358;12.282;2023-11-18T14:28:14;7.20;1.00
3794;DHT22;1912;51.358;12.282;2023-11-18T14:30:40;7.20;1.00
3794;DHT22;1912;51.358;12.282;2023-11-18T14:33:07;7.20;1.00
3794;DHT22;1912;51.358;12.282;2023-11-18T14:35:33;7.20;1.00
3794;DHT22;1912;51.358;12.282;2023-11-18T14:38:00;7.10;1.00
3794;DHT22;1912;51.358;12.282;2023-11-18T14:40:28;7.10;1.00
3794;DHT22;1912;51.358;12.282;2023-11-18T14:42:55;7.10;1.00
3794;DHT22;1912;51.358;12.282;2023-11-18T14:45:21;7.10;1.00
3794;DHT22;1912;51.358;12.282;2023-11-18T14:47:47;7.00;1.00
3794;DHT22;1912;51.358;12.282;2023-11-18T14:50:22;7.00;1.00
3794;DHT22;1912;51.358;12.282;2023-11-18T14:52:50;7.00;1.00
3794;DHT22;1912;51.358;12.282;2023-11-18T14:55:34;6.90;1.00
3794;DHT22;1912;51.358;12.282;2023-11-18T14:58:00;6.90;1.00
3794;DHT22;1912;51.358;12.282;2023-11-18T15:00:25;6.80;1.00
3794;DHT22;1912;51.358;12.282;2023-11-18T15:02:53;6.80;1.00
3794;DHT22;1912;51.358;12.282;2023-11-18T15:05:21;6.80;1.00
3794;DHT22;1912;51.358;12.282;2023-11-18T15:07:56;6.80;1.00
3794;DHT22;1912;51.358;12.282;2023-11-18T15:10:25;6.70;1.00
3794;DHT22;1912;51.358;12.282;2023-11-18T15:12:56;6.70;1.00
3794;DHT22;1912;51.358;12.282;2023-11-18T15:15:28;6.70;1.00
3794;DHT22;1912;51.358;12.282;2023-11-18T15:18:03;6.70;1.00
3794;DHT22;1912;51.358;12.282;2023-11-18T15:20:32;6.60;1.00
3794;DHT22;1912;51.358;12.282;2023-11-18T15:22:59;6.60;1.00
3794;DHT22;1912;51.358;12.282;2023-11-18T15:25:25;6.60;1.00
3794;DHT22;1912;51.358;12.282;2023-11-18T15:27:52;6.60;1.00
3794;DHT22;1912;51.358;12.282;2023-11-18T15:30:18;6.50;1.00
3794;DHT22;1912;51.358;12.282;2023-11-18T15:32:45;6.50;1.00
3794;DHT22;1912;51.358;12.282;2023-11-18T15:35:12;6.50;1.00
3794;DHT22;1912;51.358;12.282;2023-11-18T15:37:40;6.50;1.00
3794;DHT22;1912;51.358;12.282;2023-11-18T15:40:10;6.50;1.00
3794;DHT22;1912;51.358;12.282;2023-11-18T15:42:39;6.50;1.00
3794;DHT22;1912;51.358;12.282;2023-11-18T15:45:13;6.40;1.00
3794;DHT22;1912;51.358;12.282;2023-11-18T15:47:42;6.40;1.00
3794;DHT22;1912;51.358;12.282;2023-11-18T15:50:09;6.40;1.00
3794;DHT22;1912;51.358;12.282;2023-11-18T15:52:45;6.40;1.00
3794;DHT22;1912;51.358;12.282;2023-11-18T15:55:11;6.40;1.00
3794;DHT22;1912;51.358;12.282;2023-11-18T15:57:41;6.40;1.00
3794;DHT22;1912;51.358;12.282;2023-11-18T16:00:11;6.40;1.00
3794;DHT22;1912;51.358;12.282;2023-11-18T16:02:45;6.40;1.00
3794;DHT22;1912;51.358;12.282;2023-11-18T16:05:21;6.40;1.00
3794;DHT22;1912;51.358;12.282;2023-11-18T16:07:49;6.30;1.00
3794;DHT22;1912;51.358;12.282;2023-11-18T16:10:23;6.30;1.00
3794;DHT22;1912;51.358;12.282;2023-11-18T16:12:57;6.30;1.00
3794;DHT22;1912;51.358;12.282;2023-11-18T16:15:25;6.30;1.00
3794;DHT22;1912;51.358;12.282;2023-11-18T16:17:53;6.30;1.00
3794;DHT22;1912;51.358;12.282;2023-11-18T16:20:21;6.30;1.00
3794;DHT22;1912;51.358;12.282;2023-11-18T16:22:49;6.30;1.00
3794;DHT22;1912;51.358;12.282;2023-11-18T16:25:17;6.30;1.00
3794;DHT22;1912;51.358;12.282;2023-11-18T16:27:45;6.30;1.00
3794;DHT22;1912;51.358;12.282;2023-11-18T16:30:12;6.30;1.00
3794;DHT22;1912;51.358;12.282;2023-11-18T16:32:39;6.30;1.00
3794;DHT22;1912;51.358;12.282;2023-11-18T16:35:05;6.30;1.00
3794;DHT22;1912;51.358;12.282;2023-11-18T16:37:41;6.20;1.00
3794;DHT22;1912;51.358;12.282;2023-11-18T16:40:09;6.30;1.00
3794;DHT22;1912;51.358;12.282;2023-11-18T16:42:40;6.30;1.00
3794;DHT22;1912;51.358;12.282;2023-11-18T16:45:06;6.20;1.00
3794;DHT22;1912;51.358;12.282;2023-11-18T16:47:37;6.20;1.00
3794;DHT22;1912;51.358;12.282;2023-11-18T16:50:13;6.20;1.00
3794;DHT22;1912;51.358;12.282;2023-11-18T16:52:42;6.20;1.00
3794;DHT22;1912;51.358;12.282;2023-11-18T16:55:09;6.20;1.00
3794;DHT22;1912;51.358;12.282;2023-11-18T16:57:35;6.20;1.00
3794;DHT22;1912;51.358;12.282;2023-11-18T17:00:05;6.20;1.00
3794;DHT22;1912;51.358;12.282;2023-11-18T17:02:45;6.10;1.00
3794;DHT22;1912;51.358;12.282;2023-11-18T17:05:12;6.20;1.00
3794;DHT22;1912;51.358;12.282;2023-11-18T17:07:38;6.10;1.00
3794;DHT22;1912;51.358;12.282;2023-11-18T17:10:05;6.10;1.00
3794;DHT22;1912;51.358;12.282;2023-11-18T17:12:39;6.10;1.00
3794;DHT22;1912;51.358;12.282;2023-11-18T17:15:08;6.10;1.00
3794;DHT22;1912;51.358;12.282;2023-11-18T17:17:42;6.10;1.00
3794;DHT22;1912;51.358;12.282;2023-11-18T17:20:10;6.20;1.00
3794;DHT22;1912;51.358;12.282;2023-11-18T17:22:40;6.20;1.00
3794;DHT22;1912;51.358;12.282;2023-11-18T17:25:07;6.20;1.00
3794;DHT22;1912;51.358;12.282;2023-11-18T17:27:38;6.20;1.00
3794;DHT22;1912;51.358;12.282;2023-11-18T17:30:06;6.20;1.00
3794;DHT22;1912;51.358;12.282;2023-11-18T17:32:38;6.30;1.00
3794;DHT22;1912;51.358;12.282;2023-11-18T17:35:06;6.30;1.00
3794;DHT22;1912;51.358;12.282;2023-11-18T17:37:35;6.30;1.00
3794;DHT22;1912;51.358;12.282;2023-11-18T17:40:01;6.30;1.00
3794;DHT22;1912;51.358;12.282;2023-11-18T17:42:28;6.30;1.00
3794;DHT22;1912;51.358;12.282;2023-11-18T17:44:54;6.30;1.00
3794;DHT22;1912;51.358;12.282;2023-11-18T17:47:20;6.30;1.00
3794;DHT22;1912;51.358;12.282;2023-11-18T17:49:47;6.30;1.00
3794;DHT22;1912;51.358;12.282;2023-11-18T17:52:13;6.30;1.00
3794;DHT22;1912;51.358;12.282;2023-11-18T17:54:39;6.30;1.00
3794;DHT22;1912;51.358;12.282;2023-11-18T17:57:05;6.30;1.00
3794;DHT22;1912;51.358;12.282;2023-11-18T17:59:31;6.30;1.00
3794;DHT22;1912;51.358;12.282;2023-11-18T18:01:56;6.20;1.00
3794;DHT22;1912;51.358;12.282;2023-11-18T18:04:22;6.20;1.00
3794;DHT22;1912;51.358;12.282;2023-11-18T18:06:48;6.30;1.00
3794;DHT22;1912;51.358;12.282;2023-11-18T18:09:15;6.30;1.00
3794;DHT22;1912;51.358;12.282;2023-11-18T18:11:42;6.30;1.00
3794;DHT22;1912;51.358;12.282;2023-11-18T18:14:07;6.20;1.00
3794;DHT22;1912;51.358;12.282;2023-11-18T18:16:34;6.20;1.00
3794;DHT22;1912;51.358;12.282;2023-11-18T18:18:59;6.20;1.00
3794;DHT22;1912;51.358;12.282;2023-11-18T18:21:25;6.20;1.00
3794;DHT22;1912;51.358;12.282;2023-11-18T18:23:52;6.30;1.00
3794;DHT22;1912;51.358;12.282;2023-11-18T18:26:19;6.30;1.00
3794;DHT22;1912;51.358;12.282;2023-11-18T18:28:45;6.20;1.00
3794;DHT22;1912;51.358;12.282;2023-11-18T18:31:11;6.20;1.00
3794;DHT22;1912;51.358;12.282;2023-11-18T18:33:36;6.20;1.00
3794;DHT22;1912;51.358;12.282;2023-11-18T18:36:02;6.20;1.00
3794;DHT22;1912;51.358;12.282;2023-11-18T18:38:28;6.20;1.00
3794;DHT22;1912;51.358;12.282;2023-11-18T18:40:54;6.10;1.00
3794;DHT22;1912;51.358;12.282;2023-11-18T18:43:20;6.10;1.00
3794;DHT22;1912;51.358;12.282;2023-11-18T18:45:46;6.10;1.00
3794;DHT22;1912;51.358;12.282;2023-11-18T18:48:12;6.10;1.00
3794;DHT22;1912;51.358;12.282;2023-11-18T18:50:37;6.10;1.00
3794;DHT22;1912;51.358;12.282;2023-11-18T18:53:05;6.10;1.00
3794;DHT22;1912;51.358;12.282;2023-11-18T18:55:32;6.00;1.00
3794;DHT22;1912;51.358;12.282;2023-11-18T18:57:58;6.00;1.00
3794;DHT22;1912;51.358;12.282;2023-11-18T19:00:25;6.00;1.00
3794;DHT22;1912;51.358;12.282;2023-11-18T19:02:50;6.00;1.00
3794;DHT22;1912;51.358;12.282;2023-11-18T19:05:18;6.00;1.00
3794;DHT22;1912;51.358;12.282;2023-11-18T19:07:51;6.00;1.00
3794;DHT22;1912;51.358;12.282;2023-11-18T19:10:22;6.00;1.00
3794;DHT22;1912;51.358;12.282;2023-11-18T19:12:48;6.00;1.00
3794;DHT22;1912;51.358;12.282;2023-11-18T19:15:15;6.00;1.00
3794;DHT22;1912;51.358;12.282;2023-11-18T19:17:44;6.00;1.00
3794;DHT22;1912;51.358;12.282;2023-11-18T19:20:11;6.00;1.00
3794;DHT22;1912;51.358;12.282;2023-11-18T19:22:40;6.00;1.00
3794;DHT22;1912;51.358;12.282;2023-11-18T19:25:07;6.00;1.00
3794;DHT22;1912;51.358;12.282;2023-11-18T19:27:34;6.00;1.00
3794;DHT22;1912;51.358;12.282;2023-11-18T19:30:00;5.90;1.00
3794;DHT22;1912;51.358;12.282;2023-11-18T19:32:29;6.00;1.00
3794;DHT22;1912;51.358;12.282;2023-11-18T19:34:56;5.90;1.00
3794;DHT22;1912;51.358;12.282;2023-11-18T19:37:22;6.00;1.00
3794;DHT22;1912;51.358;12.282;2023-11-18T19:39:47;5.90;1.00
3794;DHT22;1912;51.358;12.282;2023-11-18T19:42:14;5.90;1.00
3794;DHT22;1912;51.358;12.282;2023-11-18T19:44:39;5.90;1.00
3794;DHT22;1912;51.358;12.282;2023-11-18T19:47:05;5.90;1.00
3794;DHT22;1912;51.358;12.282;2023-11-18T19:49:32;5.90;1.00
3794;DHT22;1912;51.358;12.282;2023-11-18T19:51:59;5.90;1.00
3794;DHT22;1912;51.358;12.282;2023-11-18T19:54:25;5.90;1.00
3794;DHT22;1912;51.358;12.282;2023-11-18T19:56:50;5.90;1.00
3794;DHT22;1912;51.358;12.282;2023-11-18T19:59:16;5.90;1.00
3794;DHT22;1912;51.358;12.282;2023-11-18T20:01:42;5.90;1.00
3794;DHT22;1912;51.358;12.282;2023-11-18T20:04:09;5.90;1.00
3794;DHT22;1912;51.358;12.282;2023-11-18T20:06:34;5.90;1.00
3794;DHT22;1912;51.358;12.282;2023-11-18T20:09:00;5.90;1.00
3794;DHT22;1912;51.358;12.282;2023-11-18T20:11:26;5.90;1.00
3794;DHT22;1912;51.358;12.282;2023-11-18T20:13:52;5.90;1.00
3794;DHT22;1912;51.358;12.282;2023-11-18T20:16:17;6.00;1.00
3794;DHT22;1912;51.358;12.282;2023-11-18T20:18:46;6.00;1.00
3794;DHT22;1912;51.358;12.282;2023-11-18T20:21:11;6.00;1.00
3794;DHT22;1912;51.358;12.282;2023-11-18T20:23:37;5.90;1.00
3794;DHT22;1912;51.358;12.282;2023-11-18T20:26:03;6.00;1.00
3794;DHT22;1912;51.358;12.282;2023-11-18T20:28:30;6.00;1.00
3794;DHT22;1912;51.358;12.282;2023-11-18T20:30:55;5.90;1.00
3794;DHT22;1912;51.358;12.282;2023-11-18T20:33:21;6.00;1.00
3794;DHT22;1912;51.358;12.282;2023-11-18T20:35:47;5.90;1.00
3794;DHT22;1912;51.358;12.282;2023-11-18T20:38:12;5.90;1.00
3794;DHT22;1912;51.358;12.282;2023-11-18T20:40:38;5.90;1.00
3794;DHT22;1912;51.358;12.282;2023-11-18T20:43:05;5.90;1.00
3794;DHT22;1912;51.358;12.282;2023-11-18T20:45:31;5.90;1.00
3794;DHT22;1912;51.358;12.282;2023-11-18T20:47:57;5.90;1.00
3794;DHT22;1912;51.358;12.282;2023-11-18T20:50:23;5.80;1.00
3794;DHT22;1912;51.358;12.282;2023-11-18T20:52:50;5.80;1.00
3794;DHT22;1912;51.358;12.282;2023-11-18T20:55:16;5.70;1.00
3794;DHT22;1912;51.358;12.282;2023-11-18T20:57:43;5.70;1.00
3794;DHT22;1912;51.358;12.282;2023-11-18T21:00:10;5.70;1.00
